Tonopah, Nevada Weather observations

Data are for observation ending at time listed.
 Day   Time    Ave.   Ave.  Ave.  Vector   Max.   Stn.    Total    Solar   Ave.  
  of    of     Air    Rel.  Wind   Wind    Wind   Baro.  Precip.   Rad.    Soil  
Year   Day     Temp.  Hum.  Speed  Dir.    Gust   Pres.                    Temp. 
2015   (PST)    F      %     mph   deg.    mph     mb.     in.     W/m2     F   
------------------------------------------------------------------------------
 208    2:00   62.0    25   15.2   291     22.5   811.1    0.00       0    78.3
 208    2:10   61.9    25   16.1   295     26.2   811.2    0.00       0    78.2
 208    2:20   61.7    24   16.5   295     26.2   811.2    0.00       0    78.0
 208    2:30   61.4    24   15.4   298     26.2   811.3    0.00       0    77.9
 208    2:40   61.0    23   17.0   291     26.2   811.4    0.00       0    77.7
 208    2:50   60.3    24   15.1   291     24.1   811.4    0.00       0    77.5
 208    3:00   60.0    25   18.2   296     30.0   811.4    0.00       0    77.4
 208    3:10   59.4    26   18.2   293     27.4   811.5    0.00       0    77.2
 208    3:20   58.5    27   16.4   288     28.1   811.6    0.00       0    77.1
 208    3:30   57.8    28   17.0   284     24.8   811.7    0.00       0    76.9
 208    3:40   57.5    29   15.9   288     25.1   811.8    0.00       0    76.7
 208    3:50   57.3    31   15.2   284     22.6   812.0    0.00       0    76.6
 208    4:00   56.9    32   12.9   288     21.8   812.2    0.00       0    76.4
 208    4:10   56.7    33   10.2   285     20.0   812.4    0.00       0    76.3
 208    4:20   56.6    35   13.8   289     21.5   812.3    0.00       0    76.1
 208    4:30   56.8    36   12.1   292     18.3   812.3    0.00       0    76.0
 208    4:40   56.4    37   10.7   289     17.5   812.4    0.00       0    75.8
 208    4:50   55.9    38   11.0   291     16.8   812.4    0.00       4    75.6
 208    5:00   55.7    38   11.6   290     19.6   812.4    0.00       7    75.5
 208    5:10   55.9    38   13.0   293     21.0   812.4    0.00      12    75.3
 208    5:20   56.4    37   15.7   294     23.6   812.4    0.00      18    75.2
 208    5:30   56.3    38   15.1   298     23.7   812.6    0.00      21    75.0
 208    5:40   56.2    38   13.6   293     20.3   812.9    0.00      66    74.9
 208    5:50   57.0    37   12.4   300     21.3   813.1    0.00     133    74.7
 208    6:00   57.4    37    9.2   301     15.3   813.4    0.00     164    74.6
 208    6:10   58.1    36    6.3   301     11.8   813.6    0.00     195    74.5
 208    6:20   58.6    36    5.2   315     11.2   813.7    0.00     233    74.4
 208    6:30   59.2    35    4.9   303      8.3   813.8    0.00     264    74.2
 208    6:40   59.6    35    6.1   289     10.2   813.9    0.00     299    74.2
 208    6:50   59.5    35    8.6   293     13.4   813.9    0.00     335    74.1
 208    7:00   60.0    35    9.8   301     14.5   813.9    0.00     372    74.1
 208    7:10   60.4    34    9.8   293     14.2   814.0    0.00     408    74.2
 208    7:20   60.9    33   10.1   299     14.7   814.2    0.00     446    74.2
 208    7:30   61.4    33    8.4   294     12.7   814.1    0.00     478    74.3
 208    7:40   62.5    32    6.2   293     10.7   814.3    0.00     511    74.3
 208    7:50   63.1    31    7.1   304     12.1   814.4    0.00     547    74.4
 208    8:00   63.5    31    6.8   285     10.7   814.4    0.00     578    74.6
 208    8:10   64.5    30    8.2   300     16.5   814.4    0.00     612    74.7
 208    8:20   64.7    30    9.0   294     17.0   814.4    0.00     645    74.9
 208    8:30   65.2    28    9.3   296     14.5   814.4    0.00     677    75.1
 208    8:40   65.9    25   11.8   300     19.6   814.4    0.00     712    75.3
 208    8:50   65.8    25   12.2   305     20.4   814.5    0.00     744    75.5
 208    9:00   66.4    23   10.0   299     15.7   814.5    0.00     769    75.8
 208    9:10   66.9    23   13.1   294     21.6   814.5    0.00     794    76.0
 208    9:20   66.6    21   10.7   304     18.9   814.7    0.00     824    76.3
 208    9:30   66.9    22   12.6   294     24.8   814.6    0.00     850    76.6
 208    9:40   67.4    21   11.5   295     20.6   814.7    0.00     873    76.8
 208    9:50   67.8    22   10.2   304     19.1   814.8    0.00     894    77.0
 208   10:00   67.6    22   11.7   297     20.0   814.8    0.00     914    77.3
 208   10:10   68.2    22   11.8   300     22.1   814.7    0.00     932    77.5
 208   10:20   68.8    22   10.9   281     20.0   814.8    0.00     947    77.8
 208   10:30   68.8    22    9.8   311     18.9   814.9    0.00     964    78.1
 208   10:40   69.3    22   11.7   289     21.4   814.9    0.00     976    78.3
 208   10:50   69.2    22   11.8   294     18.9   814.9    0.00     991    78.7
 208   11:00   69.3    22   11.7   295     18.9   814.7    0.00    1002    79.0
 208   11:10   70.1    21   11.8   290     21.9   814.7    0.00    1010    79.3
 208   11:20   70.5    21   12.2   292     21.6   814.6    0.00    1018    79.7
 208   11:30   70.8    20   11.9   294     19.2   814.7    0.00    1026    80.0
 208   11:40   70.8    20   11.8   303     20.0   814.6    0.00    1030    80.4
 208   11:50   71.7    19   11.9   290     19.7   814.6    0.00    1031    80.7
 208   12:00   71.5    19   11.9   296     22.8   814.6    0.00    1033    81.1
 208   12:10   72.0    18   11.4   296     20.0   814.6    0.00    1032    81.4
 208   12:20   72.4    18    9.1   291     18.5   814.6    0.00    1028    81.7
 208   12:30   72.7    17    9.5   296     17.7   814.6    0.00    1026    82.1
 208   12:40   73.1    17   10.4   305     18.6   814.5    0.00    1020    82.4
 208   12:50   73.5    16    8.9   323     17.0   814.6    0.00    1012    82.7
 208   13:00   73.8    16   10.3   298     19.4   814.5    0.00    1005    83.0
 208   13:10   73.6    16    8.2   297     15.6   814.5    0.00     996    83.4
 208   13:20   74.6    15   10.4   303     17.2   814.5    0.00     983    83.7
 208   13:30   74.7    15   10.7   302     21.8   814.4    0.00     971    83.9
 208   13:40   74.4    15    8.5   292     19.2   814.5    0.00     958    84.2
 208   13:50   74.6    15    9.8   298     19.6   814.3    0.00     941    84.4
 208   14:00   74.6    15   10.2   280     17.2   814.3    0.00     926    84.6
 208   14:10   75.3    14   11.5   291     20.6   814.3    0.00     903    84.8
 208   14:20   74.7    13   12.5   292     20.7   814.2    0.00     887    85.0
 208   14:30   74.8    13   10.9   297     21.0   814.2    0.00     869    85.1
 208   14:40   75.6    13    7.8   296     13.6   814.1    0.00     841    85.2
 208   14:50   75.8    13   11.3   302     19.7   813.9    0.00     814    85.3
 208   15:00   75.6    13   10.9   323     17.2   814.0    0.00     787    85.4
 208   15:10   76.0    12    9.3   306     16.9   814.0    0.00     764    85.4
 208   15:20   76.0    11   10.9   292     21.0   814.0    0.00     737    85.5
 208   15:30   76.2    12    9.3   291     19.0   813.9    0.00     703    85.4
 208   15:40   76.2    11   10.4   293     17.0   813.8    0.00     677    85.4
 208   15:50   76.1    11   10.8   317     22.2   813.9    0.00     646    85.4
 208   16:00   76.2    10   10.2   298     17.5   813.7    0.00     615    85.3
 208   16:10   76.1    10   10.0   295     17.5   813.7    0.00     581    85.2
 208   16:20   76.1    10   10.9   294     17.8   813.6    0.00     551    85.1
 208   16:30   76.0     9   11.1   308     16.1   813.6    0.00     516    84.9
 208   16:40   75.7    10   10.8   306     18.2   813.6    0.00     478    84.8
 208   16:50   75.8    10   11.5   313     18.2   813.5    0.00     441    84.6
 208   17:00   75.8     9   11.0   294     20.0   813.5    0.00     409    84.4
 208   17:10   76.2     8   11.0   296     18.3   813.5    0.00     374    84.2
 208   17:20   75.9     8   12.1   298     18.6   813.5    0.00     337    84.1
 208   17:30   75.9     8   11.8   298     19.4   813.5    0.00     299    83.9
 208   17:40   76.0     9   10.3   294     20.2   813.6    0.00     263    83.8
 208   17:50   75.3     8   11.4   290     20.0   813.6    0.00     227    83.6
 208   18:00   75.1     9   10.2   295     15.5   813.6    0.00     193    83.4
 208   18:10   74.4     9   11.5   301     17.8   813.7    0.00     160    83.2
 208   18:20   74.0     9   11.2   296     18.4   813.8    0.00     125    83.0
 208   18:30   74.2     9    9.2   306     15.6   813.8    0.00      77    82.8
 208   18:40   74.0    10    8.6   302     15.6   813.9    0.00      51    82.6
 208   18:50   73.5     9    7.6   301     11.6   814.0    0.00      16    82.5
 208   19:00   72.7     9    8.4   302     13.5   814.0    0.00       9    82.3
 208   19:10   71.9     9    8.1   302     12.1   814.0    0.00       5    82.1
 208   19:20   71.2     9    5.5   298     10.8   814.0    0.00       2    81.9
 208   19:30   70.3    10    5.4   306      9.9   814.1    0.00       0    81.7
 208   19:40   69.7    10    5.9   300      8.3   814.2    0.00       0    81.5
 208   19:50   68.9    11    5.3   294      7.9   814.3    0.00       0    81.3
 208   20:00   68.0    12    4.5   282      6.0   814.3    0.00       0    81.1
 208   20:10   67.4    12    3.0   300      5.1   814.5    0.00       0    80.9
 208   20:20   67.0    12    3.5   285      5.6   814.6    0.00       0    80.7
 208   20:30   66.8    13    4.8   273      7.3   814.7    0.00       0    80.5
 208   20:40   66.8    13    4.7   275      7.1   814.8    0.00       0    80.3
 208   20:50   66.8    13    5.0   270      7.2   814.8    0.00       0    80.2
 208   21:00   67.0    13    6.5   272     10.3   814.8    0.00       0    80.0
 208   21:10   67.5    13    6.3   282     10.1   814.8    0.00       0    79.8
 208   21:20   67.7    13    8.1   281     13.4   814.9    0.00       0    79.6
 208   21:30   67.3    13    7.6   283     12.9   814.9    0.00       0    79.4
 208   21:40   66.4    13    4.6   311     11.5   815.1    0.00       0    79.2
 208   21:50   65.1    14    5.1   278      6.9   815.1    0.00       0    79.0
 208   22:00   64.5    14    4.2   289      6.7   815.1    0.00       0    78.9
 208   22:10   63.8    14    4.3   280      5.8   815.0    0.00       0    78.7
 208   22:20   63.0    15    3.0   293      4.2   815.1    0.00       0    78.5
 208   22:30   63.0    14    4.7   291      8.0   815.1    0.00       0    78.4
 208   22:40   62.5    15    4.7   290      6.0   815.1    0.00       0    78.2
 208   22:50   62.3    15    2.8   287      5.1   815.2    0.00       0    78.0
 208   23:00   61.6    15    2.7   114      4.3   815.4    0.00       0    77.8
 208   23:10   61.9    17    2.1   328      6.6   815.4    0.00       0    77.7
 208   23:20   63.6    19    4.3     2     11.0   815.3    0.00       0    77.5
 208   23:30   64.4    19    7.4    44     14.0   815.4    0.00       0    77.4
 208   23:40   64.6    19    7.7    39     13.4   815.4    0.00       0    77.2
 208   23:50   63.8    19    7.0    33     12.3   815.5    0.00       0    77.0
 209    0:00   63.9    19    8.2    32     15.9   815.5    0.00       0    76.9
 209    0:10   63.6    19    6.5    27     11.9   815.5    0.00       0    76.7
 209    0:20   63.6    19    5.9    28     11.6   815.5    0.00       0    76.6
 209    0:30   63.5    19    6.9    24     13.0   815.5    0.00       0    76.4
 209    0:40   63.4    19    8.2    27     14.7   815.5    0.00       0    76.3
 209    0:50   63.9    19   10.8    15     18.5   815.5    0.00       0    76.2
 209    1:00   63.8    19    9.0    20     16.8   815.6    0.00       0    76.0
 209    1:10   63.6    19   10.7    23     18.4   815.5    0.00       0    75.9
 209    1:20   63.6    19    9.8    15     19.7   815.6    0.00       0    75.8
 209    1:30   62.9    20    8.5    26     15.3   815.6    0.00       0    75.7
 209    1:40   62.0    21    8.4    30     15.1   815.6    0.00       0    75.5
 209    1:50   61.7    21    9.8    20     18.1   815.5    0.00       0    75.4

Return to Tonopah, Nevada graphs page.


Western Regional Climate Center,wrcc@dri.edu